Time;durP1;ratioP1;P1;durP2;ratioP2;P2;SDS_P1;SDS_P2;PMS_P1;PMS_P2;Temp;Humidity;BMP_temperature;BMP_pressure;BME280_temperature;BME280_humidity;BME280_pressure;Samples;Min_cycle;Max_cycle;Signal;HPM_P1;HPM_P2
2021/04/10 00:00:06;;;;;;;24.67;14.47;;;;;;;2.32;56.72;100435.13;117410;1208;22881;-65
2021/04/10 00:02:35;;;;;;;21.90;13.55;;;;;;;2.40;56.57;100436.92;117281;1208;22873;-65
2021/04/10 00:05:05;;;;;;;22.40;13.00;;;;;;;2.44;56.93;100433.70;117348;1209;22850;-65
2021/04/10 00:07:33;;;;;;;20.53;12.27;;;;;;;2.52;56.86;100431.93;117350;1208;22894;-65
2021/04/10 00:10:01;;;;;;;17.70;10.80;;;;;;;2.56;56.29;100430.55;117355;1208;22881;-65
2021/04/10 00:12:28;;;;;;;20.60;12.27;;;;;;;2.59;56.69;100431.03;117419;1208;22860;-65
2021/04/10 00:15:06;;;;;;;21.70;11.70;;;;;;;2.60;56.48;100432.67;117386;1209;22887;-65
2021/04/10 00:17:34;;;;;;;22.00;11.50;;;;;;;2.60;56.38;100429.98;117316;1209;22946;-64
2021/04/10 00:20:07;;;;;;;22.20;12.45;;;;;;;2.59;56.42;100422.95;117423;1209;23689;-65
2021/04/10 00:22:34;;;;;;;20.43;11.50;;;;;;;2.57;56.45;100432.23;117420;1207;22889;-65
2021/04/10 00:25:03;;;;;;;20.10;11.90;;;;;;;2.51;56.59;100425.72;117401;1209;22856;-65
2021/04/10 00:27:37;;;;;;;21.80;11.75;;;;;;;2.45;57.01;100434.53;113301;1209;23269;-64
2021/04/10 00:30:05;;;;;;;25.00;12.87;;;;;;;2.43;56.46;100440.09;117315;1209;23574;-65
2021/04/10 00:32:33;;;;;;;33.77;15.60;;;;;;;2.36;56.48;100431.06;117421;1209;23728;-62
2021/04/10 00:35:00;;;;;;;27.50;15.13;;;;;;;2.23;57.40;100417.42;117303;1209;24190;-62
2021/04/10 00:37:28;;;;;;;30.25;14.20;;;;;;;2.23;57.14;100432.71;117406;1209;23216;-62
2021/04/10 00:39:55;;;;;;;36.77;18.00;;;;;;;2.15;57.16;100430.94;117395;1208;22907;-62
2021/04/10 00:42:26;;;;;;;36.33;16.70;;;;;;;2.07;57.24;100441.75;117409;1209;22974;-62
2021/04/10 00:44:54;;;;;;;43.97;19.10;;;;;;;1.99;57.27;100436.45;117395;1208;23648;-62
2021/04/10 00:47:21;;;;;;;36.03;17.70;;;;;;;1.91;58.33;100433.81;117390;1209;22856;-62
2021/04/10 00:49:50;;;;;;;38.30;18.03;;;;;;;1.83;58.11;100431.20;117315;1209;22993;-63
2021/04/10 00:52:18;;;;;;;45.30;20.43;;;;;;;1.71;58.70;100436.99;117315;1208;23462;-64
2021/04/10 00:54:48;;;;;;;44.25;20.35;;;;;;;1.64;58.74;100433.33;117365;1209;22955;-63
2021/04/10 00:57:19;;;;;;;44.47;19.60;;;;;;;1.52;59.02;100434.75;113900;1212;23603;-63
2021/04/10 00:59:47;;;;;;;51.00;22.25;;;;;;;1.45;58.95;100441.83;113347;1209;23138;-63
2021/04/10 01:02:15;;;;;;;40.45;18.60;;;;;;;1.39;58.72;100438.02;117406;1208;23940;-64
2021/04/10 01:04:43;;;;;;;47.10;20.60;;;;;;;1.34;59.37;100440.39;117163;1209;22894;-63
2021/04/10 01:07:10;;;;;;;43.80;19.75;;;;;;;1.30;59.68;100439.05;117220;1209;22942;-64
2021/04/10 01:09:39;;;;;;;41.83;19.80;;;;;;;1.25;60.18;100444.13;117125;1209;24001;-64
2021/04/10 01:12:20;;;;;;;39.45;18.40;;;;;;;1.21;59.78;100437.44;117246;1209;23925;-64
2021/04/10 01:15:14;;;;;;;35.90;16.47;;;;;;;1.19;59.75;100439.45;117161;1208;23753;-64
2021/04/10 01:17:48;;;;;;;31.77;15.87;;;;;;;1.21;60.41;100434.75;117187;1209;22909;-64
2021/04/10 01:20:42;;;;;;;33.93;13.87;;;;;;;1.22;59.71;100440.95;117183;1209;22879;-63
2021/04/10 01:23:48;;;;;;;23.10;12.20;;;;;;;1.27;59.56;100438.59;117217;1209;22814;-63
2021/04/10 01:26:16;;;;;;;22.60;11.90;;;;;;;1.32;59.74;100446.94;117173;1208;22891;-63
2021/04/10 01:28:52;;;;;;;24.30;12.95;;;;;;;1.38;59.80;100446.25;117207;1209;22984;-63
2021/04/10 01:31:23;;;;;;;22.67;11.43;;;;;;;1.44;59.48;100437.50;117231;1209;24380;-61
2021/04/10 01:33:59;;;;;;;19.45;10.75;;;;;;;1.51;59.58;100443.83;117241;1209;22937;-63
2021/04/10 01:36:30;;;;;;;17.77;10.43;;;;;;;1.59;58.78;100446.45;117244;1209;23034;-64
2021/04/10 01:38:58;;;;;;;20.17;10.70;;;;;;;1.67;58.84;100437.52;117247;1208;22797;-64
2021/04/10 01:41:26;;;;;;;20.77;11.17;;;;;;;1.73;58.67;100442.99;117195;1209;22837;-64
2021/04/10 01:43:53;;;;;;;18.60;10.63;;;;;;;1.78;58.87;100440.62;117291;1209;22787;-64
2021/04/10 01:46:22;;;;;;;24.10;12.50;;;;;;;1.82;58.43;100448.33;117239;1208;22831;-65
2021/04/10 01:48:52;;;;;;;21.60;11.60;;;;;;;1.85;58.18;100439.92;117255;1208;22938;-66
2021/04/10 01:51:21;;;;;;;23.20;12.05;;;;;;;1.88;58.09;100443.06;117223;1208;23876;-65
2021/04/10 01:53:48;;;;;;;22.20;12.40;;;;;;;1.90;58.17;100437.51;117224;1208;22939;-65
2021/04/10 01:56:17;;;;;;;23.40;11.70;;;;;;;1.91;58.19;100445.39;117251;1209;22832;-65
2021/04/10 01:58:51;;;;;;;24.35;11.70;;;;;;;1.92;57.76;100444.38;117258;1208;23703;-65
2021/04/10 02:01:20;;;;;;;20.00;11.27;;;;;;;1.93;58.21;100447.91;117275;1208;23010;-65
2021/04/10 02:03:49;;;;;;;23.67;12.87;;;;;;;1.93;58.28;100447.91;117208;1208;22849;-65
2021/04/10 02:06:17;;;;;;;15.33;10.67;;;;;;;1.96;57.95;100451.08;117318;1208;22877;-65
2021/04/10 02:08:52;;;;;;;18.27;10.00;;;;;;;1.97;57.57;100451.91;117198;1209;23813;-64
2021/04/10 02:11:35;;;;;;;15.40;9.73;;;;;;;1.95;57.68;100441.34;117154;1208;22870;-64
2021/04/10 02:14:11;;;;;;;17.10;9.83;;;;;;;1.91;57.92;100444.56;117276;1208;23932;-64
2021/04/10 02:16:49;;;;;;;15.93;10.33;;;;;;;1.94;57.99;100444.20;117284;1209;23637;-64
2021/04/10 02:19:19;;;;;;;18.05;9.15;;;;;;;1.93;58.33;100445.22;117394;1209;22945;-65
2021/04/10 02:21:53;;;;;;;17.23;9.23;;;;;;;1.94;57.74;100450.41;117270;1209;23573;-65
2021/04/10 02:24:22;;;;;;;14.65;9.30;;;;;;;1.96;57.30;100452.92;117221;1208;24820;-64
2021/04/10 02:26:56;;;;;;;14.65;8.95;;;;;;;1.97;57.77;100442.00;114485;1212;23132;-64
2021/04/10 02:29:26;;;;;;;16.75;8.70;;;;;;;2.00;57.56;100447.02;117254;1208;22878;-64
2021/04/10 02:32:05;;;;;;;17.50;9.90;;;;;;;2.02;57.58;100444.97;117277;1208;22888;-65
2021/04/10 02:35:05;;;;;;;15.85;9.30;;;;;;;2.02;57.91;100441.47;117232;1209;22893;-64
2021/04/10 02:37:33;;;;;;;18.10;9.10;;;;;;;2.03;57.85;100443.11;117254;1207;23446;-65
2021/04/10 02:40:04;;;;;;;17.40;9.60;;;;;;;2.03;57.93;100449.33;117191;1209;23679;-64
2021/04/10 02:42:37;;;;;;;21.10;10.30;;;;;;;2.05;57.22;100451.84;117222;1209;25162;-64
2021/04/10 02:45:05;;;;;;;19.30;10.10;;;;;;;2.07;57.31;100449.81;117226;1209;23517;-64
2021/04/10 02:47:34;;;;;;;17.60;9.70;;;;;;;2.08;57.35;100438.88;117244;1208;22916;-63
2021/04/10 02:50:04;;;;;;;17.90;9.95;;;;;;;2.10;57.05;100447.61;117222;1209;22900;-64
2021/04/10 02:52:40;;;;;;;15.67;8.97;;;;;;;2.10;57.51;100441.39;117257;1209;23387;-64
2021/04/10 02:55:08;;;;;;;13.55;8.75;;;;;;;2.05;57.61;100444.61;117243;1208;22894;-64
2021/04/10 02:57:36;;;;;;;15.77;8.57;;;;;;;2.02;57.17;100444.16;117214;1208;22970;-64
2021/04/10 03:00:06;;;;;;;12.87;8.53;;;;;;;1.97;57.20;100449.23;117203;1208;23026;-64
2021/04/10 03:02:37;;;;;;;19.10;8.97;;;;;;;1.89;57.90;100442.05;117217;1208;22882;-64
2021/04/10 03:05:11;;;;;;;15.40;8.63;;;;;;;1.86;57.51;100452.34;117225;1209;23674;-64
2021/04/10 03:07:48;;;;;;;18.30;10.50;;;;;;;1.82;57.69;100454.54;117248;1208;22826;-64
2021/04/10 03:10:22;;;;;;;15.70;8.80;;;;;;;1.80;58.08;100453.88;117498;1206;22956;-64
2021/04/10 03:12:52;;;;;;;19.55;10.50;;;;;;;1.78;57.39;100454.05;117454;1208;22813;-64
2021/04/10 03:15:21;;;;;;;17.00;10.30;;;;;;;1.77;57.51;100457.75;117443;1206;23086;-64
2021/04/10 03:17:50;;;;;;;20.00;8.70;;;;;;;1.76;57.56;100465.98;117702;1206;23967;-64
2021/04/10 03:20:18;;;;;;;18.10;10.00;;;;;;;1.72;57.87;100464.69;117446;1206;22916;-64
2021/04/10 03:22:49;;;;;;;16.30;9.95;;;;;;;1.68;58.03;100466.05;117501;1206;22971;-64
2021/04/10 03:25:22;;;;;;;18.23;10.27;;;;;;;1.65;57.88;100469.92;117487;1207;23082;-64
2021/04/10 03:27:50;;;;;;;17.73;8.73;;;;;;;1.60;58.67;100466.92;117670;1206;22778;-64
2021/04/10 03:30:20;;;;;;;22.97;10.07;;;;;;;1.59;58.78;100461.72;117516;1209;23867;-64
2021/04/10 03:32:49;;;;;;;15.60;9.45;;;;;;;1.56;58.72;100471.00;117464;1206;23603;-64
2021/04/10 03:35:17;;;;;;;15.65;9.75;;;;;;;1.54;58.51;100466.81;117447;1206;22813;-64
2021/04/10 03:37:46;;;;;;;14.97;8.30;;;;;;;1.54;58.80;100473.02;117486;1206;22832;-65
2021/04/10 03:40:17;;;;;;;16.97;9.33;;;;;;;1.56;58.35;100468.31;117455;1206;22811;-63
2021/04/10 03:42:49;;;;;;;15.05;8.90;;;;;;;1.64;58.54;100473.63;117694;1205;22878;-64
2021/04/10 03:45:21;;;;;;;15.17;8.50;;;;;;;1.74;58.21;100471.53;117810;1205;23852;-64
2021/04/10 03:47:55;;;;;;;18.45;9.70;;;;;;;1.86;58.52;100471.98;117833;1206;22928;-64
2021/04/10 03:50:25;;;;;;;14.47;8.37;;;;;;;1.99;58.56;100474.08;117731;1205;22927;-64
2021/04/10 03:52:54;;;;;;;17.55;9.80;;;;;;;2.08;58.01;100456.86;117757;1205;23984;-64
2021/04/10 03:55:22;;;;;;;18.25;9.75;;;;;;;2.33;58.69;100466.38;117909;1205;22814;-64
2021/04/10 03:57:52;;;;;;;16.73;9.47;;;;;;;2.55;57.60;100472.75;117783;1205;22929;-63
2021/04/10 04:00:20;;;;;;;19.80;10.60;;;;;;;2.81;57.34;100469.63;117703;1205;23682;-63
2021/04/10 04:02:54;;;;;;;14.00;9.10;;;;;;;3.10;56.45;100466.11;117698;1206;23926;-64
2021/04/10 04:05:22;;;;;;;19.60;10.33;;;;;;;3.40;56.69;100464.22;117845;1205;22910;-64
2021/04/10 04:07:50;;;;;;;17.50;10.00;;;;;;;3.72;56.13;100462.94;117808;1205;22870;-64
2021/04/10 04:10:17;;;;;;;13.57;9.27;;;;;;;4.00;55.49;100461.16;117847;1205;22833;-62
2021/04/10 04:12:45;;;;;;;16.30;9.60;;;;;;;4.32;54.96;100469.77;117765;1206;22841;-64
2021/04/10 04:15:13;;;;;;;15.87;8.30;;;;;;;4.62;54.12;100466.67;117765;1205;22869;-62
2021/04/10 04:17:41;;;;;;;16.70;10.47;;;;;;;4.93;53.81;100471.66;117717;1205;22944;-62
2021/04/10 04:20:09;;;;;;;18.65;8.45;;;;;;;5.23;53.13;100468.72;117832;1205;23897;-62
2021/04/10 04:22:37;;;;;;;14.20;8.90;;;;;;;5.45;52.31;100467.59;117833;1206;22888;-62
2021/04/10 04:25:07;;;;;;;13.83;8.83;;;;;;;5.64;51.96;100471.38;117844;1205;22905;-63
2021/04/10 04:27:35;;;;;;;13.90;8.30;;;;;;;5.84;50.88;100461.48;117702;1205;23615;-64
2021/04/10 04:30:07;;;;;;;14.80;9.30;;;;;;;6.03;50.50;100465.30;117821;1205;22829;-62
2021/04/10 04:32:34;;;;;;;12.65;8.45;;;;;;;6.21;50.49;100467.39;117814;1209;22974;-62
2021/04/10 04:35:02;;;;;;;16.15;9.05;;;;;;;6.35;49.43;100466.36;117780;1206;22917;-63
2021/04/10 04:37:30;;;;;;;15.60;8.90;;;;;;;6.43;49.17;100474.30;117820;1205;22843;-62
2021/04/10 04:39:58;;;;;;;12.80;8.20;;;;;;;6.47;49.16;100472.84;117739;1205;22884;-62
2021/04/10 04:42:25;;;;;;;17.60;9.40;;;;;;;6.50;49.08;100469.70;117773;1206;22871;-62
2021/04/10 04:44:53;;;;;;;13.85;9.05;;;;;;;6.48;49.03;100466.39;117668;1206;22963;-62
2021/04/10 04:47:20;;;;;;;16.15;9.65;;;;;;;6.46;48.43;100475.76;117851;1205;23338;-62
2021/04/10 04:49:48;;;;;;;15.50;9.35;;;;;;;6.41;48.60;100470.95;117746;1205;22866;-63
2021/04/10 04:52:15;;;;;;;14.20;9.30;;;;;;;6.39;48.29;100473.87;117843;1206;22933;-62
2021/04/10 04:54:43;;;;;;;15.50;9.50;;;;;;;6.35;49.04;100480.73;117750;1205;23803;-62
2021/04/10 04:57:11;;;;;;;19.40;9.30;;;;;;;6.31;48.40;100474.09;117880;1205;22831;-62
2021/04/10 04:59:39;;;;;;;15.40;9.65;;;;;;;6.28;49.21;100473.66;117734;1206;23896;-62
2021/04/10 05:02:07;;;;;;;15.80;8.20;;;;;;;6.22;49.37;100469.06;117880;1206;22975;-62
2021/04/10 05:04:35;;;;;;;14.80;9.05;;;;;;;6.19;49.92;100464.08;117850;1205;22800;-64
2021/04/10 05:07:02;;;;;;;14.90;9.05;;;;;;;6.19;49.37;100472.20;114521;1206;27306;-63
2021/04/10 05:09:30;;;;;;;15.70;9.10;;;;;;;6.19;49.99;100459.51;117672;1205;22978;-64
2021/04/10 05:11:58;;;;;;;14.75;8.75;;;;;;;6.21;49.46;100454.69;117784;1204;22858;-64
2021/04/10 05:14:26;;;;;;;16.85;10.15;;;;;;;6.24;49.51;100469.69;117651;1205;22835;-62
2021/04/10 05:16:53;;;;;;;15.95;8.90;;;;;;;6.25;49.75;100468.65;117820;1205;22870;-62
2021/04/10 05:19:21;;;;;;;14.03;8.57;;;;;;;6.29;49.70;100464.50;117765;1205;23106;-62
2021/04/10 05:21:49;;;;;;;13.40;9.15;;;;;;;6.32;49.76;100473.05;117697;1205;22909;-62
2021/04/10 05:24:16;;;;;;;15.45;9.35;;;;;;;6.25;49.44;100455.95;117719;1206;22826;-62
2021/04/10 05:26:44;;;;;;;15.95;9.50;;;;;;;6.36;49.18;100468.03;117740;1205;22951;-64
2021/04/10 05:29:12;;;;;;;36.20;9.25;;;;;;;6.42;49.78;100466.38;117829;1205;22911;-61
2021/04/10 05:31:39;;;;;;;14.95;9.15;;;;;;;6.44;49.23;100465.13;117729;1205;23322;-62
2021/04/10 05:34:07;;;;;;;30.15;10.30;;;;;;;6.48;49.44;100470.97;117813;1205;23085;-62
2021/04/10 05:36:34;;;;;;;16.55;10.30;;;;;;;6.47;49.11;100467.44;117809;1205;22858;-65
2021/04/10 05:39:02;;;;;;;20.23;10.77;;;;;;;6.48;49.63;100466.39;117749;1205;22815;-65
2021/04/10 05:41:31;;;;;;;16.65;9.50;;;;;;;6.48;49.60;100474.52;117801;1205;22929;-67
2021/04/10 05:43:59;;;;;;;19.60;10.50;;;;;;;6.51;49.72;100474.08;117664;1205;22910;-66
2021/04/10 05:46:27;;;;;;;17.75;8.85;;;;;;;6.57;49.40;100475.96;117815;1205;23504;-66
2021/04/10 05:48:54;;;;;;;15.15;8.90;;;;;;;6.60;49.66;100477.42;117842;1206;23473;-64
2021/04/10 05:51:22;;;;;;;12.45;8.40;;;;;;;6.64;49.34;100476.77;117807;1208;22856;-66
2021/04/10 05:53:50;;;;;;;17.10;9.00;;;;;;;6.69;49.59;100474.28;117741;1206;22904;-65
2021/04/10 05:56:17;;;;;;;14.50;9.00;;;;;;;6.78;49.67;100479.50;117739;1205;22891;-65
2021/04/10 05:58:45;;;;;;;18.50;9.95;;;;;;;6.84;49.95;100484.06;116702;1172;22965;-64
2021/04/10 06:01:12;;;;;;;17.70;10.25;;;;;;;6.89;49.49;100481.56;117649;1206;22883;-62
2021/04/10 06:03:40;;;;;;;15.65;8.45;;;;;;;6.92;49.08;100475.73;117711;1206;23013;-63
2021/04/10 06:06:08;;;;;;;18.50;9.50;;;;;;;6.97;49.12;100479.45;117758;1206;22919;-62
2021/04/10 06:08:36;;;;;;;16.90;8.90;;;;;;;7.03;49.42;100477.80;117714;1212;22860;-61
2021/04/10 06:11:03;;;;;;;24.10;10.10;;;;;;;7.08;49.14;100483.39;117700;1206;23936;-62
2021/04/10 06:13:31;;;;;;;15.80;9.10;;;;;;;7.13;49.48;100477.34;117718;1206;22939;-62
2021/04/10 06:15:59;;;;;;;23.15;9.55;;;;;;;7.18;49.54;100478.38;117708;1206;22848;-65
2021/04/10 06:18:26;;;;;;;19.85;8.65;;;;;;;7.26;49.68;100478.14;117681;1206;22805;-64
2021/04/10 06:20:53;;;;;;;16.40;8.40;;;;;;;7.34;49.11;100483.34;117643;1206;22937;-63
2021/04/10 06:23:21;;;;;;;14.30;8.20;;;;;;;7.39;48.43;100480.80;117718;1206;22851;-65
2021/04/10 06:25:48;;;;;;;11.05;7.90;;;;;;;7.45;48.60;100485.39;117711;1206;22926;-63
2021/04/10 06:28:16;;;;;;;13.83;7.77;;;;;;;7.49;47.63;100476.83;117673;1206;22929;-63
2021/04/10 06:30:44;;;;;;;13.27;7.63;;;;;;;7.54;48.14;100485.97;117677;1206;24031;-66
2021/04/10 06:33:11;;;;;;;14.05;8.60;;;;;;;7.61;47.79;100481.37;117696;1206;22952;-66
2021/04/10 06:35:39;;;;;;;11.30;7.45;;;;;;;7.67;48.02;100480.48;116870;1212;26340;-66
2021/04/10 06:38:07;;;;;;;12.87;7.47;;;;;;;7.72;48.17;100480.68;113492;1212;25450;-65
2021/04/10 06:40:34;;;;;;;19.17;8.70;;;;;;;7.79;48.15;100480.66;113544;1206;23123;-65
2021/04/10 06:43:02;;;;;;;11.00;7.10;;;;;;;7.88;47.69;100479.36;117494;1206;22980;-66
2021/04/10 06:45:30;;;;;;;11.10;8.00;;;;;;;7.97;47.03;100474.49;117493;1209;22839;-66
2021/04/10 06:47:57;;;;;;;11.40;7.00;;;;;;;8.04;47.13;100480.73;117524;1206;23051;-66
2021/04/10 06:50:25;;;;;;;13.60;7.80;;;;;;;8.13;47.05;100479.41;117621;1206;23119;-67
2021/04/10 06:52:54;;;;;;;14.03;8.77;;;;;;;8.22;47.18;100482.70;117401;1206;22911;-66
2021/04/10 06:55:22;;;;;;;15.30;8.65;;;;;;;8.29;47.24;100478.88;117497;1206;23566;-66
2021/04/10 06:58:02;;;;;;;14.05;7.75;;;;;;;8.37;46.25;100480.52;117596;1206;22960;-67
2021/04/10 07:00:30;;;;;;;12.15;6.75;;;;;;;8.44;46.03;100484.03;117615;1205;22822;-66
2021/04/10 07:02:59;;;;;;;13.40;7.13;;;;;;;8.49;45.77;100485.05;117467;1206;22990;-65
2021/04/10 07:05:27;;;;;;;13.30;7.10;;;;;;;8.54;46.26;100481.64;117656;1206;23853;-66
2021/04/10 07:07:57;;;;;;;10.75;6.70;;;;;;;8.60;45.91;100485.38;117709;1206;22950;-65
2021/04/10 07:10:25;;;;;;;15.45;7.80;;;;;;;8.66;45.82;100489.90;117611;1209;23908;-66
2021/04/10 07:12:53;;;;;;;14.23;7.90;;;;;;;8.73;45.72;100482.54;117700;1206;22893;-67
2021/04/10 07:15:22;;;;;;;12.60;7.00;;;;;;;8.80;45.88;100489.56;117736;1210;22800;-65
2021/04/10 07:18:07;;;;;;;10.25;6.90;;;;;;;8.85;45.82;100484.30;117629;1206;22930;-65
2021/04/10 07:20:39;;;;;;;13.20;7.15;;;;;;;8.92;46.25;100484.26;117745;1211;22936;-65
2021/04/10 07:23:07;;;;;;;10.50;7.20;;;;;;;8.97;46.14;100487.11;117759;1206;23096;-65
2021/04/10 07:25:37;;;;;;;14.55;8.00;;;;;;;9.04;45.42;100484.34;117723;1206;22910;-65
2021/04/10 07:28:22;;;;;;;12.00;7.10;;;;;;;9.10;45.84;100494.30;117672;1206;22930;-66
2021/04/10 07:30:54;;;;;;;12.75;7.15;;;;;;;9.15;45.16;100484.43;117607;1206;22931;-65
2021/04/10 07:33:22;;;;;;;12.40;7.40;;;;;;;9.11;45.35;100471.50;117762;1206;24019;-65
2021/04/10 07:35:50;;;;;;;14.65;7.70;;;;;;;9.23;45.09;100488.75;117628;1206;23047;-65
2021/04/10 07:38:34;;;;;;;11.67;6.73;;;;;;;9.27;45.22;100489.11;117681;1206;22964;-65
2021/04/10 07:41:04;;;;;;;9.95;6.50;;;;;;;9.32;45.36;100483.84;117633;1206;23052;-65
2021/04/10 07:43:36;;;;;;;9.70;6.65;;;;;;;9.35;45.12;100480.67;117700;1206;22926;-65
2021/04/10 07:47:38;;;;;;;11.60;6.75;;;;;;;9.42;44.44;100484.97;113305;1205;25800;-64
2021/04/10 07:50:13;;;;;;;20.75;11.40;;;;;;;9.46;44.58;100483.46;117303;1208;22988;-65
2021/04/10 07:52:40;;;;;;;11.60;7.75;;;;;;;9.50;44.69;100484.68;117199;1212;22931;-66
2021/04/10 07:55:09;;;;;;;13.20;7.90;;;;;;;9.55;44.10;100483.97;117423;1208;22953;-61
2021/04/10 07:57:37;;;;;;;15.00;7.30;;;;;;;9.59;43.57;100485.19;117190;1212;22849;-66
2021/04/10 08:00:05;;;;;;;9.95;7.25;;;;;;;9.63;43.67;100480.96;117195;1208;22934;-65
2021/04/10 08:02:35;;;;;;;10.93;7.43;;;;;;;9.69;44.90;100471.03;117229;1209;22874;-65
2021/04/10 08:05:06;;;;;;;15.00;7.03;;;;;;;9.75;44.70;100472.85;117189;1212;23566;-66
2021/04/10 08:07:34;;;;;;;12.40;7.55;;;;;;;9.80;44.06;100471.12;117358;1208;22981;-66
2021/04/10 08:10:05;;;;;;;13.80;7.53;;;;;;;9.86;43.62;100464.73;117269;1208;23105;-66
2021/04/10 08:12:34;;;;;;;19.30;7.17;;;;;;;9.92;43.03;100479.33;117343;1208;22997;-66
2021/04/10 08:15:02;;;;;;;9.17;6.03;;;;;;;9.96;42.97;100468.78;117393;1208;22840;-66
2021/04/10 08:17:36;;;;;;;12.30;6.75;;;;;;;9.98;42.65;100475.66;117288;1209;24097;-65
2021/04/10 08:20:17;;;;;;;17.05;6.60;;;;;;;10.01;42.79;100475.21;117347;1208;23458;-66
2021/04/10 08:22:44;;;;;;;12.75;6.65;;;;;;;10.03;42.86;100466.81;117335;1208;22958;-66
2021/04/10 08:25:12;;;;;;;8.40;6.70;;;;;;;10.08;42.00;100461.52;117313;1212;22813;-67
2021/04/10 08:27:40;;;;;;;19.73;10.70;;;;;;;10.13;42.07;100461.63;117199;1212;22857;-68
2021/04/10 08:30:08;;;;;;;17.15;10.80;;;;;;;10.16;41.86;100459.28;117351;1208;24033;-68
2021/04/10 08:32:36;;;;;;;35.53;18.97;;;;;;;10.19;42.07;100468.92;117341;1208;22939;-68
2021/04/10 08:35:03;;;;;;;27.37;11.63;;;;;;;10.24;41.72;100466.34;117318;1212;22948;-67
2021/04/10 08:37:32;;;;;;;12.47;7.47;;;;;;;10.28;40.73;100462.06;117382;1209;22863;-68
2021/04/10 08:39:59;;;;;;;9.37;6.60;;;;;;;10.28;41.79;100459.34;117232;1208;23927;-67
2021/04/10 08:42:27;;;;;;;15.00;8.30;;;;;;;10.30;42.00;100462.67;117218;1208;22887;-67
2021/04/10 08:44:56;;;;;;;10.75;7.70;;;;;;;10.35;41.79;100456.53;117239;1209;22969;-67
2021/04/10 08:47:23;;;;;;;19.25;10.55;;;;;;;10.36;41.07;100452.74;117205;1209;23012;-68
2021/04/10 08:49:51;;;;;;;13.40;7.15;;;;;;;10.38;41.63;100454.17;117200;1208;22833;-68
2021/04/10 08:52:30;;;;;;;15.60;8.57;;;;;;;10.40;41.52;100454.74;117185;1209;22830;-68
2021/04/10 08:55:02;;;;;;;10.75;7.05;;;;;;;10.46;41.65;100469.34;117185;1212;22893;-67
2021/04/10 08:57:42;;;;;;;16.43;7.10;;;;;;;10.49;40.70;100458.81;117248;1209;23771;-66
2021/04/10 09:00:16;;;;;;;15.50;8.50;;;;;;;10.49;42.10;100453.36;117367;1208;22871;-66
2021/04/10 09:02:58;;;;;;;12.93;7.13;;;;;;;10.53;41.52;100456.45;117247;1208;24126;-65
2021/04/10 09:06:04;;;;;;;11.70;8.20;;;;;;;10.55;40.83;100448.84;117339;1209;23647;-66
2021/04/10 09:08:31;;;;;;;15.15;8.25;;;;;;;10.58;40.95;100462.01;116821;1212;22915;-65
2021/04/10 09:11:00;;;;;;;13.90;7.27;;;;;;;10.61;40.38;100453.37;116851;1212;22976;-66
2021/04/10 09:13:52;;;;;;;12.70;6.50;;;;;;;10.63;40.32;100451.24;116858;1212;23552;-65
2021/04/10 09:16:34;;;;;;;18.25;7.60;;;;;;;10.64;40.60;100455.63;116824;1212;22872;-64
2021/04/10 09:19:19;;;;;;;11.70;8.05;;;;;;;10.65;40.89;100445.56;116903;1211;22885;-66
2021/04/10 09:21:59;;;;;;;14.53;9.23;;;;;;;10.72;40.32;100451.71;116886;1212;23431;-66
2021/04/10 09:24:49;;;;;;;19.10;10.10;;;;;;;10.75;39.93;100448.52;116758;1212;22907;-66
2021/04/10 09:27:28;;;;;;;10.73;7.47;;;;;;;10.79;39.82;100441.53;113305;1215;23234;-66
2021/04/10 09:29:59;;;;;;;12.60;8.50;;;;;;;10.79;39.77;100439.64;116844;1212;22989;-65
2021/04/10 09:32:27;;;;;;;14.15;6.70;;;;;;;10.80;39.67;100438.58;116639;1212;22901;-67
2021/04/10 09:35:16;;;;;;;12.55;6.65;;;;;;;10.81;39.80;100445.69;116774;1212;22997;-63
2021/04/10 09:37:43;;;;;;;10.13;6.00;;;;;;;10.85;40.24;100432.39;116860;1212;22967;-64
2021/04/10 09:40:47;;;;;;;9.03;6.93;;;;;;;10.87;39.93;100427.53;117152;1209;22899;-68
2021/04/10 09:43:15;;;;;;;10.90;7.17;;;;;;;10.88;40.17;100430.02;117309;1209;23019;-66
2021/04/10 09:45:52;;;;;;;9.65;6.23;;;;;;;10.91;39.75;100431.45;117302;1208;22844;-63
2021/04/10 09:48:21;;;;;;;13.10;7.08;;;;;;;10.94;39.61;100422.80;117266;1208;22884;-65
2021/04/10 09:50:52;;;;;;;10.63;6.33;;;;;;;10.98;39.30;100429.41;117193;1209;22932;-65
2021/04/10 09:53:24;;;;;;;14.58;6.15;;;;;;;11.01;39.57;100433.57;117188;1212;22907;-65
2021/04/10 09:56:02;;;;;;;8.35;5.85;;;;;;;11.05;38.80;100426.58;117176;1209;23056;-64
2021/04/10 09:58:41;;;;;;;9.80;6.23;;;;;;;11.07;39.67;100425.28;117303;1208;22893;-63
2021/04/10 10:01:13;;;;;;;8.77;6.13;;;;;;;11.12;39.29;100417.19;117274;1209;24016;-64
2021/04/10 10:03:42;;;;;;;10.30;6.50;;;;;;;11.15;39.20;100421.34;117314;1212;22953;-64
2021/04/10 10:06:23;;;;;;;10.07;6.33;;;;;;;11.18;39.51;100418.14;117330;1209;22907;-66
2021/04/10 10:08:52;;;;;;;11.95;6.05;;;;;;;11.21;38.72;100412.20;117267;1209;22866;-65
2021/04/10 10:11:20;;;;;;;7.40;5.75;;;;;;;11.22;39.36;100413.88;117262;1209;23683;-64
2021/04/10 10:13:48;;;;;;;11.03;6.00;;;;;;;11.24;39.25;100400.83;117302;1212;22825;-64
2021/04/10 10:16:24;;;;;;;10.05;6.48;;;;;;;11.26;38.96;100401.38;117209;1209;22879;-64
2021/04/10 10:19:18;;;;;;;10.25;5.90;;;;;;;11.27;39.23;100405.77;117181;1212;22999;-64
2021/04/10 10:21:47;;;;;;;9.07;5.50;;;;;;;11.31;37.64;100402.33;117264;1208;22902;-66
2021/04/10 10:24:19;;;;;;;11.60;5.65;;;;;;;11.31;37.54;100406.95;117362;1208;22988;-64
2021/04/10 10:26:47;;;;;;;5.35;4.38;;;;;;;11.28;37.76;100400.08;117287;1209;22942;-65
2021/04/10 10:29:16;;;;;;;7.88;5.45;;;;;;;11.30;38.30;100399.84;117324;1208;22984;-63
2021/04/10 10:31:45;;;;;;;13.10;6.00;;;;;;;11.32;38.32;100403.99;117192;1209;23045;-66
2021/04/10 10:34:24;;;;;;;7.58;5.05;;;;;;;11.37;37.87;100407.91;117319;1209;22910;-65
2021/04/10 10:36:56;;;;;;;23.40;5.20;;;;;;;11.41;37.05;100395.41;115985;1176;23127;-66
2021/04/10 10:39:28;;;;;;;11.20;5.30;;;;;;;11.43;36.75;100393.28;112726;1215;23163;-66
2021/04/10 10:41:57;;;;;;;7.85;5.50;;;;;;;11.44;37.43;100394.94;117108;1209;23783;-67
2021/04/10 10:44:24;;;;;;;6.55;5.15;;;;;;;11.46;37.22;100396.36;117204;1214;22879;-66
2021/04/10 10:47:00;;;;;;;9.87;6.67;;;;;;;11.48;37.19;100387.93;117183;1214;22871;-67
2021/04/10 10:49:28;;;;;;;6.57;5.03;;;;;;;11.46;36.65;100388.17;117185;1213;22923;-67
2021/04/10 10:51:56;;;;;;;14.18;7.35;;;;;;;11.46;36.97;100385.44;117197;1209;22833;-67
2021/04/10 10:54:36;;;;;;;7.75;5.25;;;;;;;11.46;36.28;100379.16;117160;1209;22892;-66
2021/04/10 10:57:08;;;;;;;7.90;5.27;;;;;;;11.42;36.11;100369.78;117211;1209;23044;-67
2021/04/10 10:59:55;;;;;;;9.40;5.90;;;;;;;11.38;37.45;100369.47;117216;1209;23462;-67
2021/04/10 11:02:24;;;;;;;16.70;6.40;;;;;;;11.41;37.98;100368.95;117189;1215;22991;-66
2021/04/10 11:04:52;;;;;;;14.13;6.35;;;;;;;11.47;38.32;100375.36;117121;1215;23043;-67
2021/04/10 11:07:24;;;;;;;11.93;6.93;;;;;;;11.51;37.80;100366.45;117088;1209;23051;-67
2021/04/10 11:09:53;;;;;;;8.33;6.13;;;;;;;11.52;36.65;100359.92;117181;1209;22870;-67
2021/04/10 11:12:22;;;;;;;20.90;6.30;;;;;;;11.51;37.56;100363.72;117116;1215;22849;-67
2021/04/10 11:14:58;;;;;;;12.85;6.93;;;;;;;11.53;37.48;100364.31;117083;1210;22963;-67
2021/04/10 11:17:30;;;;;;;14.33;6.80;;;;;;;11.57;36.98;100350.98;113460;1214;23123;-66
2021/04/10 11:19:59;;;;;;;11.38;7.00;;;;;;;11.59;37.22;100357.86;117167;1211;23203;-67
2021/04/10 11:22:27;;;;;;;44.43;8.80;;;;;;;11.62;36.82;100356.55;117203;1214;22916;-67
2021/04/10 11:25:01;;;;;;;11.37;6.80;;;;;;;11.63;36.86;100352.75;117200;1214;22827;-67
2021/04/10 11:27:34;;;;;;;12.93;6.67;;;;;;;11.64;37.28;100352.50;117216;1209;22914;-67
2021/04/10 11:30:09;;;;;;;12.98;7.33;;;;;;;11.67;37.03;100346.56;117151;1209;23987;-67
2021/04/10 11:32:43;;;;;;;13.77;7.33;;;;;;;11.72;37.64;100350.44;117208;1212;22880;-67